createdAt,value
2019-01-11T00:00:26.286Z,43.73
2019-01-11T00:03:28.316Z,40.77
2019-01-11T00:06:30.270Z,32.37
2019-01-11T00:09:32.193Z,38.00
2019-01-11T00:12:34.178Z,31.57
2019-01-11T00:15:36.226Z,36.97
2019-01-11T00:18:38.212Z,35.80
2019-01-11T00:21:41.636Z,38.83
2019-01-11T00:24:43.646Z,39.87
2019-01-11T00:27:45.537Z,39.83
2019-01-11T00:30:47.509Z,38.37
2019-01-11T00:33:49.409Z,33.67
2019-01-11T00:36:51.343Z,32.57
2019-01-11T00:39:53.286Z,34.80
2019-01-11T00:42:55.220Z,41.87
2019-01-11T00:45:57.216Z,32.33
2019-01-11T00:48:59.147Z,26.73
2019-01-11T00:52:01.346Z,18.90
2019-01-11T00:55:06.433Z,20.83
2019-01-11T00:58:08.326Z,18.50
2019-01-11T01:01:10.339Z,19.40
2019-01-11T01:04:12.786Z,18.00
2019-01-11T01:07:15.347Z,22.40
2019-01-11T01:10:19.204Z,21.27
2019-01-11T01:13:21.121Z,28.03
2019-01-11T01:16:23.212Z,22.13
2019-01-11T01:19:25.178Z,27.67
2019-01-11T01:22:27.072Z,28.83
2019-01-11T01:25:29.151Z,32.53
2019-01-11T01:28:31.083Z,31.80
2019-01-11T01:31:33.024Z,34.47
2019-01-11T01:34:34.902Z,34.23
2019-01-11T01:37:36.972Z,31.47
2019-01-11T01:40:38.905Z,30.17
2019-01-11T01:43:40.943Z,35.87
2019-01-11T01:46:42.861Z,33.90
2019-01-11T01:49:44.794Z,27.57
2019-01-11T01:52:46.734Z,28.63
2019-01-11T01:55:49.045Z,29.50
2019-01-11T01:58:51.054Z,31.67
2019-01-11T02:01:52.983Z,34.63
2019-01-11T02:04:55.011Z,34.43
2019-01-11T02:07:57.002Z,31.40
2019-01-11T02:10:58.933Z,35.70
2019-01-11T02:14:00.927Z,31.60
2019-01-11T02:17:03.467Z,32.73
2019-01-11T02:20:11.474Z,30.27
2019-01-11T02:23:13.350Z,28.90
2019-01-11T02:26:15.323Z,26.10
2019-01-11T02:29:17.210Z,32.00
2019-01-11T02:32:19.208Z,36.53
2019-01-11T02:35:21.056Z,30.07
2019-01-11T02:38:22.956Z,27.90
2019-01-11T02:41:24.879Z,36.33
2019-01-11T02:44:26.914Z,33.03
2019-01-11T02:47:28.907Z,29.93
2019-01-11T02:50:30.909Z,30.80
2019-01-11T02:53:33.310Z,33.43
2019-01-11T02:56:35.301Z,28.83
2019-01-11T02:59:37.288Z,28.43
2019-01-11T03:02:39.353Z,29.73
2019-01-11T03:05:41.505Z,28.27
2019-01-11T03:08:43.512Z,26.83
2019-01-11T03:11:45.511Z,24.50
2019-01-11T03:14:49.096Z,24.60
2019-01-11T03:17:51.150Z,20.07
2019-01-11T03:20:53.113Z,21.70
2019-01-11T03:23:55.011Z,23.90
2019-01-11T03:26:56.990Z,20.77
2019-01-11T03:29:58.948Z,23.03
2019-01-11T03:33:00.932Z,25.40
2019-01-11T03:36:03.584Z,30.80
2019-01-11T03:39:05.786Z,21.07
2019-01-11T03:42:09.495Z,25.37
2019-01-11T03:45:14.467Z,32.17
2019-01-11T03:48:16.451Z,29.77
2019-01-11T03:51:18.427Z,35.77
2019-01-11T03:54:20.392Z,23.03
2019-01-11T03:57:22.501Z,26.03
2019-01-11T04:00:24.386Z,26.73
2019-01-11T04:03:26.340Z,27.83
2019-01-11T04:06:28.882Z,26.40
2019-01-11T04:09:30.857Z,23.53
2019-01-11T04:12:32.828Z,26.93
2019-01-11T04:15:35.749Z,24.27
2019-01-11T04:18:40.287Z,27.73
2019-01-11T04:21:44.483Z,25.23
2019-01-11T04:24:48.326Z,26.63
2019-01-11T04:27:51.076Z,27.53
2019-01-11T04:30:53.021Z,23.33
2019-01-11T04:33:55.034Z,23.90
2019-01-11T04:36:57.029Z,25.57
2019-01-11T04:39:59.009Z,27.97
2019-01-11T04:43:00.927Z,27.67
2019-01-11T04:46:03.012Z,26.00
2019-01-11T04:49:05.036Z,22.53
2019-01-11T04:52:07.024Z,24.87
2019-01-11T04:55:09.169Z,22.57
2019-01-11T04:58:11.167Z,27.97
2019-01-11T05:01:13.128Z,35.70
2019-01-11T05:04:15.469Z,29.10
2019-01-11T05:07:18.815Z,36.63
2019-01-11T05:10:20.787Z,27.83
2019-01-11T05:13:30.296Z,34.00
2019-01-11T05:16:39.310Z,29.20
2019-01-11T05:19:36.305Z,27.37
2019-01-11T05:22:38.296Z,25.63
2019-01-11T05:25:40.230Z,27.03
2019-01-11T05:28:42.188Z,25.23
2019-01-11T05:31:45.953Z,27.47
2019-01-11T05:34:47.940Z,22.57
2019-01-11T05:37:49.850Z,32.83
2019-01-11T05:40:51.839Z,20.37
2019-01-11T05:43:53.747Z,20.67
2019-01-11T05:46:55.703Z,23.13
2019-01-11T05:49:57.672Z,17.30
2019-01-11T05:52:59.640Z,19.87
2019-01-11T05:56:01.925Z,22.17
2019-01-11T05:59:04.641Z,19.40
2019-01-11T06:02:06.578Z,19.47
2019-01-11T06:05:10.400Z,24.03
2019-01-11T06:08:19.752Z,21.10
2019-01-11T06:11:21.770Z,22.10
2019-01-11T06:14:23.677Z,23.37
2019-01-11T06:17:25.588Z,24.80
2019-01-11T06:20:30.357Z,20.63
2019-01-11T06:23:31.618Z,17.37
2019-01-11T06:26:34.848Z,15.77
2019-01-11T06:29:36.816Z,13.10
2019-01-11T06:32:38.759Z,9.93
2019-01-11T06:35:41.568Z,12.13
2019-01-11T06:38:43.539Z,10.67
2019-01-11T06:41:47.385Z,11.63
2019-01-11T06:44:49.345Z,14.27
2019-01-11T06:47:51.330Z,13.23
2019-01-11T06:50:53.362Z,11.23
2019-01-11T06:53:55.413Z,15.67
2019-01-11T06:56:57.300Z,15.77
2019-01-11T06:59:59.304Z,15.73
2019-01-11T07:03:01.266Z,14.70
2019-01-11T07:06:03.291Z,18.40
2019-01-11T07:09:06.531Z,21.00
2019-01-11T07:12:08.438Z,21.63
2019-01-11T07:15:12.530Z,16.73
2019-01-11T07:18:14.890Z,27.53
2019-01-11T07:21:16.983Z,23.13
2019-01-11T07:24:18.956Z,21.03
2019-01-11T07:27:20.869Z,12.50
2019-01-11T07:30:25.104Z,14.13
2019-01-11T07:33:27.155Z,12.30
2019-01-11T07:36:29.753Z,10.40
2019-01-11T07:39:31.664Z,12.30
2019-01-11T07:42:33.665Z,9.00
2019-01-11T07:45:35.614Z,9.57
2019-01-11T07:48:37.594Z,10.43
2019-01-11T07:51:39.660Z,14.50
2019-01-11T07:54:41.649Z,10.97
2019-01-11T07:57:43.643Z,13.47
2019-01-11T08:00:45.608Z,13.87
2019-01-11T08:03:47.537Z,12.50
2019-01-11T08:06:50.594Z,17.40
2019-01-11T08:09:53.183Z,17.97
2019-01-11T08:12:55.247Z,23.23
2019-01-11T08:15:57.178Z,32.23
2019-01-11T08:18:59.204Z,38.90
2019-01-11T08:22:01.271Z,35.43
2019-01-11T08:25:05.503Z,34.43
2019-01-11T08:28:07.551Z,33.33
2019-01-11T08:31:09.559Z,40.23
2019-01-11T08:34:11.510Z,41.20
2019-01-11T08:37:14.788Z,43.13
2019-01-11T08:40:16.747Z,31.80
2019-01-11T08:43:18.714Z,20.73
2019-01-11T08:46:20.686Z,18.30
2019-01-11T08:49:22.673Z,23.80
2019-01-11T08:52:24.659Z,23.67
2019-01-11T08:55:28.496Z,22.77
2019-01-11T08:58:30.494Z,25.67
2019-01-11T09:01:32.454Z,15.93
2019-01-11T09:04:34.393Z,13.87
2019-01-11T09:07:36.388Z,15.50
2019-01-11T09:10:38.401Z,17.93
2019-01-11T09:13:40.423Z,23.70
2019-01-11T09:16:43.470Z,21.90
2019-01-11T09:19:45.424Z,23.70
2019-01-11T09:22:47.524Z,27.13
2019-01-11T09:25:49.562Z,29.70
2019-01-11T09:28:51.558Z,21.90
2019-01-11T09:31:53.568Z,30.67
2019-01-11T09:34:55.517Z,39.97
2019-01-11T09:37:58.061Z,31.73
2019-01-11T09:41:00.004Z,20.13
2019-01-11T09:44:01.993Z,19.03
2019-01-11T09:47:03.902Z,14.57
2019-01-11T09:50:08.188Z,12.53
2019-01-11T09:53:10.204Z,11.37
2019-01-11T09:56:12.202Z,11.60
2019-01-11T09:59:14.125Z,13.67
2019-01-11T10:02:17.914Z,15.87
2019-01-11T10:05:19.825Z,12.40
2019-01-11T10:08:21.789Z,10.20
2019-01-11T10:11:24.081Z,11.43
2019-01-11T10:14:26.113Z,8.73
2019-01-11T10:17:28.124Z,9.00
2019-01-11T10:20:30.597Z,9.97
2019-01-11T10:23:32.706Z,11.87
2019-01-11T10:26:34.726Z,13.57
2019-01-11T10:29:36.674Z,10.33
2019-01-11T10:32:38.697Z,13.23
2019-01-11T10:35:40.691Z,7.67
2019-01-11T10:38:42.698Z,10.77
2019-01-11T10:41:44.641Z,13.80
2019-01-11T10:44:46.595Z,15.13
2019-01-11T10:47:51.558Z,12.73
2019-01-11T10:50:53.535Z,14.73
2019-01-11T10:53:56.589Z,14.63
2019-01-11T10:56:58.594Z,16.40
2019-01-11T11:00:00.762Z,19.27
2019-01-11T11:03:02.924Z,22.90
2019-01-11T11:06:04.920Z,18.27
2019-01-11T11:09:06.858Z,17.23
2019-01-11T11:12:08.961Z,14.27
2019-01-11T11:15:13.552Z,20.20
2019-01-11T11:18:15.442Z,21.03
2019-01-11T11:21:18.026Z,15.50
2019-01-11T11:24:20.120Z,14.67
2019-01-11T11:27:22.102Z,13.63
2019-01-11T11:30:24.961Z,13.87
2019-01-11T11:33:26.911Z,19.00
2019-01-11T11:36:28.879Z,15.83
2019-01-11T11:39:30.980Z,18.93
2019-01-11T11:42:32.878Z,16.10
2019-01-11T11:45:34.853Z,21.77
2019-01-11T11:48:36.789Z,21.37
2019-01-11T11:51:41.491Z,21.27
2019-01-11T11:54:42.658Z,23.47
2019-01-11T11:57:44.636Z,22.37
2019-01-11T12:00:46.669Z,21.83
2019-01-11T12:03:48.672Z,20.20
2019-01-11T12:06:50.637Z,14.83
2019-01-11T12:09:52.582Z,21.13
2019-01-11T12:12:55.075Z,19.60
2019-01-11T12:15:57.109Z,17.03
2019-01-11T12:18:59.072Z,16.73
2019-01-11T12:22:01.749Z,17.37
2019-01-11T12:25:06.063Z,16.37
2019-01-11T12:28:08.071Z,17.67
2019-01-11T12:31:10.032Z,16.73
2019-01-11T12:34:12.094Z,11.70
2019-01-11T12:37:13.992Z,15.80
2019-01-11T12:40:16.556Z,15.30
2019-01-11T12:43:18.514Z,19.60
2019-01-11T12:46:20.569Z,15.13
2019-01-11T12:49:22.507Z,18.23
2019-01-11T12:52:24.506Z,17.73
2019-01-11T12:55:26.545Z,14.30
2019-01-11T12:58:28.511Z,11.17
2019-01-11T13:01:30.438Z,15.30
2019-01-11T13:04:32.370Z,12.80
2019-01-11T13:07:35.273Z,13.83
2019-01-11T13:10:37.211Z,13.10
2019-01-11T13:13:39.204Z,18.60
2019-01-11T13:16:41.245Z,19.67
2019-01-11T13:19:43.251Z,14.30
2019-01-11T13:22:45.422Z,16.63
2019-01-11T13:25:47.514Z,18.47
2019-01-11T13:28:49.520Z,19.83
2019-01-11T13:31:51.474Z,18.10
2019-01-11T13:34:53.587Z,22.20
2019-01-11T13:37:55.569Z,20.80
2019-01-11T13:40:57.564Z,21.60
2019-01-11T13:43:59.486Z,24.43
2019-01-11T13:47:01.466Z,20.90
2019-01-11T13:50:06.958Z,20.90
2019-01-11T13:53:09.014Z,20.50
2019-01-11T13:56:11.081Z,25.70
2019-01-11T13:59:13.214Z,31.70
2019-01-11T14:02:15.315Z,30.43
2019-01-11T14:05:17.360Z,31.67
2019-01-11T14:08:19.396Z,28.63
2019-01-11T14:11:21.382Z,23.20
2019-01-11T14:14:23.309Z,28.93
2019-01-11T14:17:25.318Z,23.43
2019-01-11T14:20:27.255Z,21.80
2019-01-11T14:23:29.966Z,25.60
2019-01-11T14:26:32.017Z,22.80
2019-01-11T14:29:34.203Z,21.17
2019-01-11T14:32:36.256Z,22.90
2019-01-11T14:35:40.117Z,20.70
2019-01-11T14:38:42.136Z,23.53
2019-01-11T14:41:44.722Z,23.67
2019-01-11T14:44:46.673Z,23.13
2019-01-11T14:47:49.037Z,21.07
2019-01-11T14:50:50.962Z,23.20
2019-01-11T14:53:52.948Z,27.23
2019-01-11T14:56:54.967Z,31.60
2019-01-11T14:59:57.004Z,25.47
2019-01-11T15:02:58.950Z,22.17
2019-01-11T15:06:01.046Z,28.57
2019-01-11T15:09:05.838Z,28.90
2019-01-11T15:12:07.832Z,23.37
2019-01-11T15:15:10.540Z,27.57
2019-01-11T15:18:12.641Z,23.57
2019-01-11T15:21:14.593Z,25.23
2019-01-11T15:24:18.130Z,24.80
2019-01-11T15:27:20.361Z,25.20
2019-01-11T15:30:22.327Z,25.97
2019-01-11T15:33:24.292Z,34.37
2019-01-11T15:36:26.282Z,28.17
2019-01-11T15:39:28.359Z,30.53
2019-01-11T15:42:30.517Z,31.97
2019-01-11T15:45:32.597Z,34.13
2019-01-11T15:48:42.709Z,29.93
2019-01-11T15:51:44.671Z,29.33
2019-01-11T15:54:46.706Z,28.87
2019-01-11T15:57:48.714Z,27.40
2019-01-11T16:00:50.722Z,32.57
2019-01-11T16:03:52.873Z,38.77
2019-01-11T16:06:55.021Z,30.93
2019-01-11T16:09:58.257Z,35.60
2019-01-11T16:13:02.897Z,35.03
2019-01-11T16:16:07.920Z,39.30
2019-01-11T16:19:09.923Z,32.80
2019-01-11T16:22:11.880Z,42.00
2019-01-11T16:25:16.085Z,43.20
2019-01-11T16:28:18.195Z,41.17
2019-01-11T16:31:20.193Z,39.93
2019-01-11T16:34:22.091Z,42.97
2019-01-11T16:37:24.040Z,48.67
2019-01-11T16:40:25.942Z,46.53
2019-01-11T16:43:28.047Z,48.30
2019-01-11T16:46:29.955Z,48.77
2019-01-11T16:49:31.949Z,45.43
2019-01-11T16:52:33.833Z,37.53
2019-01-11T16:55:35.810Z,36.30
2019-01-11T16:58:37.763Z,38.27
2019-01-11T17:01:39.947Z,35.70
2019-01-11T17:04:42.011Z,49.13
2019-01-11T17:07:44.019Z,37.77
2019-01-11T17:10:45.932Z,43.73
2019-01-11T17:13:47.916Z,39.23
2019-01-11T17:16:49.852Z,39.73
2019-01-11T17:19:51.809Z,44.40
2019-01-11T17:22:53.775Z,45.60
2019-01-11T17:25:55.982Z,39.33
2019-01-11T17:28:58.003Z,37.63
2019-01-11T17:32:00.015Z,37.63
2019-01-11T17:35:01.907Z,43.07
2019-01-11T17:38:03.994Z,46.30
2019-01-11T17:41:06.149Z,46.73
2019-01-11T17:44:08.084Z,40.53
2019-01-11T17:47:10.027Z,40.63
2019-01-11T17:50:14.389Z,42.20
2019-01-11T17:53:16.275Z,40.67
2019-01-11T17:56:18.270Z,37.07
2019-01-11T17:59:20.268Z,35.93
2019-01-11T18:02:23.049Z,31.33
2019-01-11T18:05:24.984Z,30.07
2019-01-11T18:08:26.985Z,31.57
2019-01-11T18:11:28.945Z,29.50
2019-01-11T18:14:30.957Z,31.80
2019-01-11T18:17:32.876Z,27.67
2019-01-11T18:20:36.744Z,26.57
2019-01-11T18:23:39.032Z,27.10
2019-01-11T18:26:41.105Z,23.70
2019-01-11T18:29:43.313Z,28.83
2019-01-11T18:32:48.014Z,24.47
2019-01-11T18:35:49.920Z,25.93
2019-01-11T18:38:51.912Z,29.57
2019-01-11T18:41:53.876Z,25.07
2019-01-11T18:44:56.917Z,33.90
2019-01-11T18:47:58.833Z,37.50
2019-01-11T18:51:00.854Z,27.30
2019-01-11T18:54:03.131Z,27.07
2019-01-11T18:57:06.075Z,28.93
2019-01-11T19:00:23.076Z,27.87
2019-01-11T19:03:25.100Z,28.13
2019-01-11T19:06:27.135Z,29.40
2019-01-11T19:09:29.684Z,30.80
2019-01-11T19:12:31.609Z,29.40
2019-01-11T19:15:34.797Z,26.70
2019-01-11T19:18:36.719Z,29.27
2019-01-11T19:21:39.641Z,31.97
2019-01-11T19:24:44.084Z,29.33
2019-01-11T19:27:46.584Z,38.23
2019-01-11T19:30:48.954Z,32.30
2019-01-11T19:33:50.965Z,31.00
2019-01-11T19:36:54.429Z,32.60
2019-01-11T19:39:56.810Z,44.37
2019-01-11T19:42:59.048Z,43.17
2019-01-11T19:46:01.490Z,48.07
2019-01-11T19:49:03.672Z,53.87
2019-01-11T19:52:07.059Z,50.10
2019-01-11T19:55:10.622Z,53.73
2019-01-11T19:58:15.020Z,50.80
2019-01-11T20:01:17.376Z,50.00
2019-01-11T20:04:21.285Z,53.70
2019-01-11T20:07:25.044Z,47.67
2019-01-11T20:10:30.864Z,41.03
2019-01-11T20:13:33.140Z,52.27
2019-01-11T20:16:35.797Z,47.23
2019-01-11T20:19:38.697Z,50.47
2019-01-11T20:22:45.325Z,50.73
2019-01-11T20:25:47.740Z,49.90
2019-01-11T20:28:49.887Z,51.87
2019-01-11T20:31:52.271Z,40.53
2019-01-11T20:34:56.086Z,34.90
2019-01-11T20:37:58.012Z,42.27
2019-01-11T20:41:00.053Z,43.47
2019-01-11T20:44:01.942Z,42.53
2019-01-11T20:47:05.116Z,51.10
2019-01-11T20:50:10.066Z,43.23
2019-01-11T20:53:11.982Z,34.63
2019-01-11T20:56:13.917Z,38.97
2019-01-11T20:59:16.252Z,43.87
2019-01-11T21:02:18.239Z,33.30
2019-01-11T21:05:20.773Z,31.43
2019-01-11T21:08:25.883Z,28.30
2019-01-11T21:11:29.656Z,35.17
2019-01-11T21:14:31.568Z,41.97
2019-01-11T21:17:37.605Z,47.43
2019-01-11T21:20:39.872Z,55.47
2019-01-11T21:23:48.690Z,58.97
2019-01-11T21:26:48.473Z,68.63
2019-01-11T21:29:51.923Z,69.93
2019-01-11T21:32:54.708Z,77.77
2019-01-11T21:35:58.483Z,79.23
2019-01-11T21:39:00.701Z,54.43
2019-01-11T21:42:02.750Z,48.00
2019-01-11T21:45:08.792Z,44.67
2019-01-11T21:48:10.917Z,44.60
2019-01-11T21:51:12.877Z,40.93
2019-01-11T21:54:14.917Z,48.23
2019-01-11T21:57:16.964Z,48.17
2019-01-11T22:00:25.359Z,39.10
2019-01-11T22:03:27.318Z,32.30
2019-01-11T22:06:29.291Z,25.70
2019-01-11T22:09:31.190Z,21.27
2019-01-11T22:12:33.113Z,21.67
2019-01-11T22:15:35.071Z,15.83
2019-01-11T22:18:37.278Z,15.17
2019-01-11T22:21:39.199Z,17.07
2019-01-11T22:24:41.479Z,13.20
2019-01-11T22:27:43.737Z,10.77
2019-01-11T22:30:46.106Z,12.83
2019-01-11T22:33:48.240Z,10.60
2019-01-11T22:36:50.344Z,10.40
2019-01-11T22:39:52.897Z,11.77
2019-01-11T22:42:56.182Z,13.00
2019-01-11T22:45:58.108Z,11.67
2019-01-11T22:49:00.070Z,14.47
2019-01-11T22:52:02.074Z,15.60
2019-01-11T22:55:06.125Z,18.20
2019-01-11T22:58:08.979Z,17.63
2019-01-11T23:01:17.800Z,14.57
2019-01-11T23:04:21.309Z,15.57
2019-01-11T23:07:26.631Z,16.03
2019-01-11T23:10:38.879Z,18.60
2019-01-11T23:13:40.878Z,14.63
2019-01-11T23:16:42.936Z,15.53
2019-01-11T23:19:45.054Z,17.20
2019-01-11T23:22:47.013Z,16.03
2019-01-11T23:25:49.101Z,18.40
2019-01-11T23:28:51.143Z,22.53
2019-01-11T23:31:53.163Z,19.47
2019-01-11T23:34:55.536Z,18.33
2019-01-11T23:37:58.744Z,21.60
2019-01-11T23:41:00.651Z,19.97
2019-01-11T23:44:02.760Z,18.77
2019-01-11T23:47:04.809Z,24.73
2019-01-11T23:50:09.871Z,19.83
2019-01-11T23:53:11.790Z,22.40
2019-01-11T23:56:13.792Z,20.80
2019-01-11T23:59:15.746Z,22.73
